Time;durP1;ratioP1;P1;durP2;ratioP2;P2;SDS_P1;SDS_P2;PMS_P1;PMS_P2;Temp;Humidity;BMP_temperature;BMP_pressure;BME280_temperature;BME280_humidity;BME280_pressure;Samples;Min_cycle;Max_cycle;Signal;HPM_P1;HPM_P2
2023/05/13 00:01:27;;;;;;;11.82;8.10;;;;;;;9.85;100.00;100777.97;5528918;32;34063;-74
2023/05/13 00:04:30;;;;;;;10.32;8.00;;;;;;;9.84;100.00;100778.12;5528941;32;34705;-74
2023/05/13 00:07:32;;;;;;;10.73;8.07;;;;;;;9.76;100.00;100778.06;5528937;32;33823;-74
2023/05/13 00:10:35;;;;;;;11.75;8.65;;;;;;;9.72;100.00;100780.19;5528012;32;34273;-74
2023/05/13 00:13:38;;;;;;;10.50;8.15;;;;;;;9.72;100.00;100771.41;5529144;32;33765;-74
2023/05/13 00:16:41;;;;;;;10.70;8.23;;;;;;;9.72;100.00;100771.41;5528888;32;34302;-74
2023/05/13 00:19:44;;;;;;;10.52;8.40;;;;;;;9.74;100.00;100777.38;5528984;32;33747;-77
2023/05/13 00:22:47;;;;;;;14.27;8.77;;;;;;;9.72;100.00;100780.19;5528839;32;34245;-76
2023/05/13 00:25:49;;;;;;;19.60;9.15;;;;;;;9.72;100.00;100776.72;5528803;32;33646;-74
2023/05/13 00:28:52;;;;;;;8.60;7.78;;;;;;;9.68;100.00;100775.34;5528782;32;34178;-75
2023/05/13 00:31:55;;;;;;;10.32;8.23;;;;;;;9.70;100.00;100773.38;5528816;32;34097;-74
2023/05/13 00:34:58;;;;;;;10.88;8.30;;;;;;;9.70;100.00;100776.03;5529064;32;33930;-73
2023/05/13 00:38:01;;;;;;;10.82;8.55;;;;;;;9.64;100.00;100776.63;5528648;32;34537;-73
2023/05/13 00:41:05;;;;;;;10.13;7.82;;;;;;;9.66;100.00;100780.81;5528718;32;33606;-74
2023/05/13 00:44:07;;;;;;;10.77;7.40;;;;;;;9.73;100.00;100783.69;5528689;32;33818;-74
2023/05/13 00:47:10;;;;;;;12.45;7.80;;;;;;;9.69;100.00;100785.78;5528496;32;33900;-73
2023/05/13 00:50:13;;;;;;;11.07;8.48;;;;;;;9.67;100.00;100779.81;5528438;32;33898;-74
2023/05/13 00:53:16;;;;;;;11.27;8.27;;;;;;;9.76;100.00;100791.31;5528570;32;33579;-75
2023/05/13 00:56:20;;;;;;;9.43;7.93;;;;;;;9.68;100.00;100791.25;5528762;32;34624;-74
2023/05/13 00:59:27;;;;;;;8.80;7.68;;;;;;;9.69;100.00;100783.13;5528010;32;34266;-74
2023/05/13 01:02:51;;;;;;;11.27;8.52;;;;;;;9.68;100.00;100789.44;5528399;32;34132;-74
2023/05/13 01:06:06;;;;;;;11.02;7.93;;;;;;;9.67;100.00;100797.53;5528431;32;34924;-74
2023/05/13 01:09:38;;;;;;;15.18;8.38;;;;;;;9.62;100.00;100787.38;5527596;32;32067;-74
2023/05/13 01:12:43;;;;;;;12.63;8.27;;;;;;;9.65;100.00;100792.38;5528299;32;34638;-74
2023/05/13 01:15:51;;;;;;;9.55;8.00;;;;;;;9.62;100.00;100799.81;5528317;32;34376;-76
2023/05/13 01:18:57;;;;;;;9.45;7.93;;;;;;;9.56;100.00;100793.28;5528257;32;33717;-74
2023/05/13 01:22:00;;;;;;;10.55;8.27;;;;;;;9.64;100.00;100798.66;5528059;32;33808;-75
2023/05/13 01:25:03;;;;;;;11.30;7.68;;;;;;;9.67;100.00;100805.47;5528457;32;33783;-73
2023/05/13 01:28:07;;;;;;;14.05;8.05;;;;;;;9.61;100.00;100791.00;5528091;32;33679;-75
2023/05/13 01:31:12;;;;;;;13.10;7.90;;;;;;;9.58;100.00;100799.28;5528278;32;33631;-73
2023/05/13 01:34:17;;;;;;;12.63;8.63;;;;;;;9.56;100.00;100801.22;5527824;32;34153;-73
2023/05/13 01:37:20;;;;;;;10.20;8.43;;;;;;;9.59;100.00;100800.91;5527914;32;33790;-73
2023/05/13 01:40:23;;;;;;;9.18;8.18;;;;;;;9.62;100.00;100803.28;5527772;32;33893;-75
2023/05/13 01:43:32;;;;;;;12.63;8.70;;;;;;;9.64;100.00;100803.94;5527722;32;34492;-74
2023/05/13 01:46:38;;;;;;;11.23;7.68;;;;;;;9.64;100.00;100800.47;5527743;32;33814;-74
2023/05/13 01:49:42;;;;;;;10.02;7.90;;;;;;;9.67;100.00;100808.12;5527891;32;33687;-75
2023/05/13 01:52:44;;;;;;;10.32;7.95;;;;;;;9.60;100.00;100799.94;5527909;32;35073;-74
2023/05/13 01:55:47;;;;;;;10.88;8.00;;;;;;;9.63;100.00;100799.66;5527568;32;34634;-74
2023/05/13 01:58:50;;;;;;;10.13;7.50;;;;;;;9.64;100.00;100803.09;5527555;32;33732;-75
2023/05/13 02:01:53;;;;;;;7.95;7.15;;;;;;;9.64;100.00;100800.47;5527479;32;33645;-74
2023/05/13 02:04:55;;;;;;;8.77;7.28;;;;;;;9.62;100.00;100800.63;5527348;32;35096;-75
2023/05/13 02:07:58;;;;;;;9.80;6.82;;;;;;;9.59;100.00;100809.69;5527578;32;33891;-75
2023/05/13 02:11:01;;;;;;;8.00;6.72;;;;;;;9.48;100.00;100807.28;5527310;32;33968;-74
2023/05/13 02:14:04;;;;;;;10.18;6.95;;;;;;;9.44;100.00;100808.56;5527261;32;33835;-75
2023/05/13 02:17:09;;;;;;;11.82;7.18;;;;;;;9.46;100.00;100808.41;5527188;32;33619;-76
2023/05/13 02:20:11;;;;;;;7.95;7.10;;;;;;;9.46;100.00;100806.59;5527038;32;34643;-74
2023/05/13 02:23:15;;;;;;;9.50;6.82;;;;;;;9.44;100.00;100807.75;5526212;32;35035;-75
2023/05/13 02:26:18;;;;;;;10.05;6.78;;;;;;;9.43;100.00;100806.91;5527104;32;33724;-76
2023/05/13 02:29:22;;;;;;;9.30;7.05;;;;;;;9.40;100.00;100812.47;5526907;32;33711;-75
2023/05/13 02:32:24;;;;;;;9.20;6.70;;;;;;;9.40;100.00;100806.34;5527928;32;33594;-76
2023/05/13 02:35:28;;;;;;;11.70;7.93;;;;;;;9.34;100.00;100804.31;5529685;32;33998;-74
2023/05/13 02:38:33;;;;;;;8.77;6.70;;;;;;;9.30;100.00;100810.88;5530027;32;33948;-78
2023/05/13 02:41:36;;;;;;;9.57;7.70;;;;;;;9.26;100.00;100809.50;5529965;32;34000;-76
2023/05/13 02:44:39;;;;;;;9.90;7.65;;;;;;;9.26;100.00;100814.81;5529716;32;33654;-75
2023/05/13 02:47:43;;;;;;;11.88;7.65;;;;;;;9.25;100.00;100811.31;5529644;32;34121;-78
2023/05/13 02:50:46;;;;;;;11.93;7.70;;;;;;;9.21;100.00;100817.06;5528746;32;33892;-76
2023/05/13 02:53:49;;;;;;;11.35;7.95;;;;;;;9.16;100.00;100818.34;5529600;32;34220;-75
2023/05/13 02:56:51;;;;;;;10.85;8.30;;;;;;;9.12;100.00;100826.72;5529604;32;33674;-73
2023/05/13 02:59:54;;;;;;;12.02;7.57;;;;;;;9.08;100.00;100828.84;5529412;32;33692;-75
2023/05/13 03:02:57;;;;;;;9.93;7.75;;;;;;;9.08;100.00;100818.25;5529478;32;34466;-74
2023/05/13 03:06:00;;;;;;;9.75;7.85;;;;;;;9.10;100.00;100824.22;5529396;32;34071;-74
2023/05/13 03:09:02;;;;;;;12.27;7.60;;;;;;;9.09;100.00;100824.41;5529476;32;33916;-76
2023/05/13 03:12:08;;;;;;;9.70;7.37;;;;;;;9.09;100.00;100821.75;5529383;32;34533;-77
2023/05/13 03:15:10;;;;;;;10.45;7.80;;;;;;;9.10;100.00;100818.12;5529440;32;33730;-75
2023/05/13 03:18:13;;;;;;;8.75;7.50;;;;;;;9.11;100.00;100823.25;5529414;32;33843;-77
2023/05/13 03:21:16;;;;;;;8.75;7.22;;;;;;;9.13;100.00;100825.75;5529379;32;33983;-76
2023/05/13 03:24:19;;;;;;;12.30;7.32;;;;;;;9.07;100.00;100823.69;5529656;32;34509;-75
2023/05/13 03:27:22;;;;;;;17.48;8.02;;;;;;;8.97;100.00;100829.03;5529600;32;34283;-73
2023/05/13 03:30:25;;;;;;;11.20;7.28;;;;;;;8.93;100.00;100829.47;5529274;32;34605;-73
2023/05/13 03:33:30;;;;;;;35.42;9.63;;;;;;;8.91;100.00;100836.72;5528348;32;33822;-72
2023/05/13 03:36:32;;;;;;;17.60;8.63;;;;;;;8.91;100.00;100834.06;5541464;32;33997;-72
2023/05/13 03:39:35;;;;;;;10.65;7.82;;;;;;;8.89;100.00;100838.69;5548928;32;34699;-72
2023/05/13 03:42:39;;;;;;;14.35;8.07;;;;;;;8.87;100.00;100838.81;5548228;32;34311;-71
2023/05/13 03:45:46;;;;;;;9.93;7.60;;;;;;;8.92;100.00;100846.31;5546796;32;34520;-71
2023/05/13 03:48:50;;;;;;;29.90;8.52;;;;;;;9.00;100.00;100847.28;5548337;32;34872;-70
2023/05/13 03:51:52;;;;;;;29.48;9.48;;;;;;;8.89;100.00;100854.56;5548154;32;33837;-70
2023/05/13 03:54:55;;;;;;;18.27;8.10;;;;;;;8.85;100.00;100853.19;5548405;32;33567;-71
2023/05/13 03:57:58;;;;;;;14.15;8.15;;;;;;;8.88;100.00;100847.59;5548415;32;33708;-71
2023/05/13 04:01:01;;;;;;;13.45;8.18;;;;;;;8.95;100.00;100854.81;5548386;32;33990;-72
2023/05/13 04:04:04;;;;;;;19.98;8.90;;;;;;;8.94;100.00;100861.09;5548755;32;33756;-72
2023/05/13 04:07:06;;;;;;;17.08;8.27;;;;;;;8.96;100.00;100864.41;5547314;32;35084;-72
2023/05/13 04:10:09;;;;;;;10.20;7.60;;;;;;;9.03;100.00;100859.38;5548282;32;34584;-71
2023/05/13 04:13:16;;;;;;;10.20;7.50;;;;;;;9.14;100.00;100870.63;5548514;32;34024;-72
2023/05/13 04:16:20;;;;;;;17.85;8.10;;;;;;;9.08;100.00;100873.00;5547396;32;34188;-70
2023/05/13 04:19:22;;;;;;;21.70;8.80;;;;;;;9.08;100.00;100873.00;5548240;32;33893;-72
2023/05/13 04:22:25;;;;;;;24.85;9.57;;;;;;;8.99;100.00;100876.53;5548226;32;33708;-71
2023/05/13 04:25:27;;;;;;;15.50;9.48;;;;;;;9.03;100.00;100878.75;5547975;32;33689;-71
2023/05/13 04:28:30;;;;;;;10.25;7.97;;;;;;;9.09;100.00;100877.31;5548054;32;34507;-71
2023/05/13 04:31:33;;;;;;;9.13;7.70;;;;;;;9.24;100.00;100881.16;5548056;32;33508;-71
2023/05/13 04:34:37;;;;;;;13.07;7.75;;;;;;;9.22;100.00;100884.91;5548251;32;34777;-71
2023/05/13 04:37:39;;;;;;;9.75;7.80;;;;;;;9.12;100.00;100884.97;5547941;32;33800;-71
2023/05/13 04:40:43;;;;;;;15.18;8.32;;;;;;;9.12;100.00;100888.44;5548323;32;33909;-71
2023/05/13 04:43:47;;;;;;;18.77;8.10;;;;;;;9.19;100.00;100882.56;5548028;32;34578;-71
2023/05/13 04:46:50;;;;;;;13.52;7.35;;;;;;;9.20;100.00;100887.69;5547581;32;34124;-71
2023/05/13 04:49:53;;;;;;;9.98;8.27;;;;;;;9.20;100.00;100892.19;5547882;32;34429;-71
2023/05/13 04:52:57;;;;;;;10.43;7.78;;;;;;;9.15;100.00;100889.94;5547709;32;34163;-71
2023/05/13 04:55:59;;;;;;;10.45;7.55;;;;;;;9.25;100.00;100885.44;5547287;32;34046;-72
2023/05/13 04:59:02;;;;;;;11.05;7.37;;;;;;;9.45;100.00;100891.47;5547668;32;34529;-72
2023/05/13 05:02:05;;;;;;;9.85;7.68;;;;;;;9.53;100.00;100899.53;5547991;32;33972;-71
2023/05/13 05:05:08;;;;;;;11.12;7.35;;;;;;;9.35;100.00;100896.00;5547708;32;33478;-72
2023/05/13 05:08:11;;;;;;;9.90;7.60;;;;;;;9.41;100.00;100901.53;5547909;32;33909;-72
2023/05/13 05:11:14;;;;;;;12.75;6.95;;;;;;;9.38;100.00;100901.84;5546798;32;33934;-72
2023/05/13 05:14:17;;;;;;;11.93;7.30;;;;;;;9.55;100.00;100903.69;5530789;32;33791;-72
2023/05/13 05:17:20;;;;;;;7.70;6.50;;;;;;;9.60;100.00;100905.91;5528263;32;33867;-72
2023/05/13 05:20:23;;;;;;;13.40;6.57;;;;;;;9.65;100.00;100905.44;5528274;32;33708;-72
2023/05/13 05:23:27;;;;;;;8.88;6.87;;;;;;;9.69;100.00;100906.81;5528332;32;34313;-72
2023/05/13 05:26:30;;;;;;;14.27;7.37;;;;;;;9.81;100.00;100916.22;5528375;32;34893;-72
2023/05/13 05:29:33;;;;;;;11.65;8.25;;;;;;;9.87;100.00;100915.63;5528037;32;34543;-72
2023/05/13 05:32:36;;;;;;;9.27;7.93;;;;;;;9.96;100.00;100907.63;5528183;32;33450;-73
2023/05/13 05:35:40;;;;;;;8.43;7.03;;;;;;;10.17;100.00;100911.78;5527913;32;33869;-72
2023/05/13 05:38:43;;;;;;;11.40;7.28;;;;;;;10.17;100.00;100911.78;5527610;32;34613;-73
2023/05/13 05:41:46;;;;;;;8.43;7.30;;;;;;;10.05;100.00;100911.19;5532076;32;33820;-74
2023/05/13 05:44:49;;;;;;;11.05;6.70;;;;;;;10.03;100.00;100913.12;5527899;32;33729;-78
2023/05/13 05:47:54;;;;;;;7.57;5.82;;;;;;;9.97;100.00;100911.91;5527524;32;34004;-74
2023/05/13 05:50:56;;;;;;;6.95;5.97;;;;;;;9.84;100.00;100924.72;5527929;32;33781;-74
2023/05/13 05:54:00;;;;;;;7.62;5.53;;;;;;;9.77;100.00;100918.34;5546473;32;33793;-75
2023/05/13 05:57:04;;;;;;;6.90;5.50;;;;;;;9.73;100.00;100913.50;5546789;32;33804;-74
2023/05/13 06:00:07;;;;;;;9.80;5.87;;;;;;;9.75;100.00;100911.53;5547808;32;33594;-74
2023/05/13 06:03:16;;;;;;;7.87;5.50;;;;;;;9.89;100.00;100911.00;5549652;32;34356;-75
2023/05/13 06:06:19;;;;;;;8.07;5.75;;;;;;;9.85;100.00;100914.94;5546362;32;34406;-74
2023/05/13 06:09:22;;;;;;;9.55;6.37;;;;;;;9.93;100.00;100923.81;5549180;32;33857;-74
2023/05/13 06:12:25;;;;;;;9.18;6.37;;;;;;;9.88;100.00;100933.19;5547944;32;33725;-74
2023/05/13 06:15:29;;;;;;;7.85;5.93;;;;;;;9.90;100.00;100934.72;5549258;32;33783;-75
2023/05/13 06:18:32;;;;;;;7.62;6.60;;;;;;;9.89;100.00;100933.03;5549149;32;34969;-74
2023/05/13 06:21:35;;;;;;;10.75;6.37;;;;;;;9.97;100.00;100929.66;5547593;32;33898;-75
2023/05/13 06:24:38;;;;;;;8.80;6.25;;;;;;;10.07;100.00;100932.25;5529755;32;32598;-74
2023/05/13 06:27:41;;;;;;;9.48;6.35;;;;;;;10.11;100.00;100934.44;5529861;32;33688;-75
2023/05/13 06:30:44;;;;;;;8.20;6.00;;;;;;;10.10;100.00;100932.75;5529134;32;34820;-75
2023/05/13 06:33:47;;;;;;;6.87;6.18;;;;;;;10.05;100.00;100945.63;5529579;32;34938;-76
2023/05/13 06:36:50;;;;;;;9.10;6.50;;;;;;;10.02;100.00;100940.66;5534397;32;33940;-74
2023/05/13 06:39:53;;;;;;;8.18;6.35;;;;;;;9.99;100.00;100951.53;5548807;32;34108;-75
2023/05/13 06:42:56;;;;;;;12.52;7.20;;;;;;;10.04;100.00;100938.66;5548458;32;33654;-75
2023/05/13 06:46:02;;;;;;;11.95;6.55;;;;;;;10.03;100.00;100944.94;5534041;32;33695;-75
2023/05/13 06:49:05;;;;;;;10.52;6.47;;;;;;;10.16;100.00;100941.97;5529422;32;34017;-76
2023/05/13 06:52:08;;;;;;;8.75;7.22;;;;;;;10.18;100.00;100945.28;5529281;32;33838;-75
2023/05/13 06:55:12;;;;;;;10.13;6.80;;;;;;;10.11;100.00;100930.94;5529541;32;33612;-76
2023/05/13 06:58:14;;;;;;;12.60;6.80;;;;;;;9.88;100.00;100949.09;5529281;32;33891;-79
2023/05/13 07:01:18;;;;;;;11.63;6.75;;;;;;;9.89;100.00;100943.66;5536504;32;34529;-76
2023/05/13 07:04:20;;;;;;;10.80;6.87;;;;;;;9.88;100.00;100947.28;5545143;32;34068;-75
2023/05/13 07:07:23;;;;;;;8.27;6.82;;;;;;;9.91;100.00;100935.56;5539840;32;34349;-76
2023/05/13 07:10:26;;;;;;;10.68;6.97;;;;;;;10.12;100.00;100938.72;5548381;32;33910;-76
2023/05/13 07:13:32;;;;;;;8.77;7.45;;;;;;;10.08;100.00;100950.62;5548732;32;33878;-76
2023/05/13 07:16:34;;;;;;;10.65;8.43;;;;;;;10.08;100.00;100945.31;5548676;32;33753;-75
2023/05/13 07:19:37;;;;;;;12.07;7.35;;;;;;;10.07;100.00;100943.66;5548390;32;33767;-75
2023/05/13 07:22:40;;;;;;;9.30;8.00;;;;;;;10.03;100.00;100945.78;5548629;32;33898;-76
2023/05/13 07:25:43;;;;;;;9.75;7.87;;;;;;;9.85;100.00;100957.34;5547719;32;33785;-77
2023/05/13 07:28:45;;;;;;;11.45;7.57;;;;;;;9.85;100.00;100952.03;5548330;32;33907;-75
2023/05/13 07:31:48;;;;;;;10.07;7.53;;;;;;;9.89;100.00;100950.75;5548456;32;34638;-77
2023/05/13 07:34:50;;;;;;;8.50;7.35;;;;;;;9.88;100.00;100951.72;5547494;32;34240;-76
2023/05/13 07:37:53;;;;;;;9.40;7.47;;;;;;;9.92;100.00;100956.59;5548204;32;33989;-75
2023/05/13 07:40:56;;;;;;;9.65;7.68;;;;;;;10.01;100.00;100953.06;5547699;32;34958;-76
2023/05/13 07:43:59;;;;;;;11.95;7.32;;;;;;;10.12;100.00;100956.47;5548484;32;33964;-76
2023/05/13 07:47:01;;;;;;;9.07;7.25;;;;;;;10.15;100.00;100967.62;5548301;32;33883;-75
2023/05/13 07:50:05;;;;;;;8.57;7.07;;;;;;;10.08;100.00;100968.34;5547639;32;34695;-75
2023/05/13 07:53:07;;;;;;;10.98;7.53;;;;;;;10.04;100.00;100960.69;5548346;32;34452;-73
2023/05/13 07:56:10;;;;;;;9.52;7.45;;;;;;;10.08;100.00;100963.03;5548547;32;34965;-77
2023/05/13 07:59:13;;;;;;;10.43;6.95;;;;;;;10.16;100.00;100965.81;5546968;32;34227;-75
2023/05/13 08:02:15;;;;;;;9.23;7.35;;;;;;;10.16;100.00;100971.97;5545991;32;33761;-74
2023/05/13 08:05:18;;;;;;;11.93;7.12;;;;;;;10.22;100.00;100976.66;5528661;32;34184;-74
2023/05/13 08:08:21;;;;;;;10.10;7.07;;;;;;;10.36;100.00;100970.00;5527841;32;33575;-75
2023/05/13 08:11:25;;;;;;;9.40;6.85;;;;;;;10.47;100.00;100977.72;5528417;32;34486;-75
2023/05/13 08:14:28;;;;;;;12.25;6.70;;;;;;;10.42;100.00;100978.16;5528562;32;33820;-74
2023/05/13 08:17:31;;;;;;;8.35;6.55;;;;;;;10.44;100.00;100985.97;5537114;32;34606;-73
2023/05/13 08:20:33;;;;;;;10.30;7.50;;;;;;;10.36;100.00;100992.03;5548140;32;33790;-75
2023/05/13 08:23:37;;;;;;;9.85;7.30;;;;;;;10.15;100.00;100987.97;5547395;32;33523;-75
2023/05/13 08:26:47;;;;;;;10.48;7.45;;;;;;;10.28;100.00;100999.91;5547720;32;33891;-74
2023/05/13 08:29:50;;;;;;;9.65;6.55;;;;;;;10.22;100.00;100992.56;5547099;32;33866;-75
2023/05/13 08:32:52;;;;;;;9.32;7.07;;;;;;;10.26;100.00;100999.22;5547627;32;34800;-76
2023/05/13 08:35:57;;;;;;;9.25;7.10;;;;;;;10.39;100.00;101006.81;5547515;32;34740;-72
2023/05/13 08:39:00;;;;;;;8.00;6.75;;;;;;;10.48;100.00;101000.59;5547787;32;33649;-76
2023/05/13 08:42:03;;;;;;;8.77;7.10;;;;;;;10.43;100.00;101010.84;5547458;32;34186;-73
2023/05/13 08:45:07;;;;;;;7.57;6.68;;;;;;;10.62;100.00;101009.84;5546685;32;33965;-75
2023/05/13 08:48:17;;;;;;;8.90;6.85;;;;;;;10.67;100.00;101010.22;5547546;32;34088;-74
2023/05/13 08:51:20;;;;;;;9.65;7.28;;;;;;;10.76;100.00;101010.13;5539897;32;33790;-73
2023/05/13 08:54:24;;;;;;;9.77;6.68;;;;;;;10.74;100.00;101013.94;5528589;32;34711;-75
2023/05/13 08:57:29;;;;;;;8.93;6.65;;;;;;;10.80;100.00;101013.31;5527256;32;33879;-73
2023/05/13 09:00:33;;;;;;;10.23;7.07;;;;;;;10.88;100.00;101006.25;5527815;32;34533;-75
2023/05/13 09:03:54;;;;;;;8.00;6.55;;;;;;;11.07;100.00;101002.56;5528036;32;34743;-74
2023/05/13 09:06:57;;;;;;;8.32;6.43;;;;;;;11.25;100.00;101008.66;5527993;32;34047;-73
2023/05/13 09:10:00;;;;;;;8.88;6.35;;;;;;;11.19;100.00;101009.28;5545983;32;33754;-74
2023/05/13 09:13:05;;;;;;;7.05;6.12;;;;;;;11.17;100.00;101011.28;5546470;32;33727;-77
2023/05/13 09:16:08;;;;;;;8.30;5.75;;;;;;;11.37;100.00;101003.94;5547783;32;34778;-70
2023/05/13 09:19:12;;;;;;;7.30;5.53;;;;;;;11.29;100.00;101010.00;5547521;32;33754;-73
2023/05/13 09:22:17;;;;;;;8.80;5.78;;;;;;;11.45;100.00;101011.09;5547248;32;33624;-74
2023/05/13 09:25:22;;;;;;;10.45;6.05;;;;;;;11.81;100.00;101014.47;5546967;32;33586;-73
2023/05/13 09:28:26;;;;;;;7.82;4.90;;;;;;;11.77;100.00;101017.41;5547351;32;33675;-74
2023/05/13 09:31:32;;;;;;;6.07;5.32;;;;;;;12.34;100.00;101019.44;5547252;32;34530;-73
2023/05/13 09:34:35;;;;;;;8.93;5.40;;;;;;;12.74;100.00;101011.47;5547319;32;33687;-73
2023/05/13 09:37:38;;;;;;;9.50;5.40;;;;;;;13.30;100.00;101007.13;5546193;32;34611;-72
2023/05/13 09:40:51;;;;;;;6.45;5.22;;;;;;;13.24;100.00;101008.62;5531227;32;33857;-71
2023/05/13 09:43:54;;;;;;;7.35;5.43;;;;;;;13.31;100.00;101009.59;5529844;32;33842;-71
2023/05/13 09:46:57;;;;;;;7.15;5.03;;;;;;;13.61;100.00;101013.34;5529580;32;33882;-70
2023/05/13 09:50:02;;;;;;;5.53;4.60;;;;;;;13.88;100.00;101012.09;5531016;32;33902;-72
2023/05/13 09:53:11;;;;;;;6.80;4.45;;;;;;;13.59;100.00;101017.22;5537731;32;33823;-70
2023/05/13 09:56:22;;;;;;;8.18;4.12;;;;;;;13.94;100.00;101017.56;5537750;32;34600;-70
2023/05/13 09:59:25;;;;;;;7.05;4.50;;;;;;;14.49;100.00;101015.78;5531949;32;33838;-69
2023/05/13 10:02:28;;;;;;;4.90;4.35;;;;;;;14.84;100.00;101007.16;5534007;32;34915;-70
2023/05/13 10:05:32;;;;;;;7.28;3.62;;;;;;;15.00;100.00;101012.38;5548669;32;33916;-70
2023/05/13 10:08:37;;;;;;;5.10;3.83;;;;;;;14.87;100.00;101011.28;5549019;32;33808;-69
2023/05/13 10:11:46;;;;;;;5.03;3.67;;;;;;;14.54;100.00;101006.22;5548873;32;33660;-69
2023/05/13 10:14:50;;;;;;;7.68;4.20;;;;;;;14.42;100.00;101006.81;5548694;32;33746;-73
2023/05/13 10:17:53;;;;;;;4.93;3.80;;;;;;;14.20;100.00;100997.75;5549081;32;33803;-70
2023/05/13 10:20:57;;;;;;;4.10;3.45;;;;;;;14.37;100.00;101006.53;5548246;32;33959;-69
2023/05/13 10:24:00;;;;;;;6.65;4.00;;;;;;;14.68;100.00;101002.78;5549328;32;33981;-69
2023/05/13 10:27:05;;;;;;;5.90;3.72;;;;;;;14.83;100.00;100993.97;5548916;32;33709;-68
2023/05/13 10:30:09;;;;;;;4.53;3.60;;;;;;;14.87;100.00;100993.44;5548705;32;34616;-68
2023/05/13 10:33:12;;;;;;;5.30;4.15;;;;;;;14.58;100.00;100999.50;5548684;32;34595;-68
2023/05/13 10:36:22;;;;;;;6.85;4.25;;;;;;;13.61;100.00;100997.38;5548650;32;34088;-68
2023/05/13 10:39:30;;;;;;;6.00;4.30;;;;;;;13.55;100.00;100995.41;5548716;32;33932;-69
2023/05/13 10:42:36;;;;;;;5.95;4.00;;;;;;;13.99;100.00;100993.03;5549003;32;33957;-68
2023/05/13 10:45:43;;;;;;;5.22;4.00;;;;;;;13.97;100.00;101000.38;5548499;32;34138;-69
2023/05/13 10:48:48;;;;;;;8.43;4.75;;;;;;;14.09;100.00;101001.62;5548762;32;34615;-68
2023/05/13 10:51:51;;;;;;;7.68;4.50;;;;;;;13.73;100.00;101006.66;5548474;32;34403;-67
2023/05/13 10:55:01;;;;;;;7.32;4.60;;;;;;;13.85;100.00;101004.44;5547576;32;33844;-69
2023/05/13 10:58:09;;;;;;;7.00;4.80;;;;;;;14.31;100.00;101000.03;5548602;32;33753;-71
2023/05/13 11:01:17;;;;;;;6.57;4.85;;;;;;;14.07;100.00;100997.50;5548590;32;34904;-68
2023/05/13 11:04:20;;;;;;;8.73;5.60;;;;;;;14.18;100.00;101000.59;5536317;32;33589;-69
2023/05/13 11:07:23;;;;;;;7.50;4.60;;;;;;;14.05;100.00;100994.16;5529224;32;34652;-68
2023/05/13 11:10:30;;;;;;;7.12;4.10;;;;;;;13.92;100.00;101000.91;5528990;32;33945;-68
2023/05/13 11:13:37;;;;;;;6.22;4.43;;;;;;;13.83;100.00;100998.44;5528892;32;33822;-68
2023/05/13 11:16:55;;;;;;;7.35;4.45;;;;;;;13.86;100.00;100995.44;5529371;32;34066;-68
2023/05/13 11:19:58;;;;;;;8.50;4.28;;;;;;;14.18;100.00;100995.28;5529487;32;33641;-67
2023/05/13 11:23:01;;;;;;;7.70;4.78;;;;;;;14.18;100.00;100997.94;5529432;32;33737;-68
2023/05/13 11:26:17;;;;;;;9.73;4.80;;;;;;;14.34;100.00;100996.97;5534178;32;33882;-67
2023/05/13 11:29:31;;;;;;;9.10;4.53;;;;;;;14.09;100.00;100984.78;5548333;32;34352;-71
2023/05/13 11:32:49;;;;;;;7.85;4.37;;;;;;;13.93;100.00;100985.75;5543786;32;34809;-67
2023/05/13 11:35:56;;;;;;;10.30;4.35;;;;;;;13.65;100.00;100985.34;5545336;32;33908;-67
2023/05/13 11:39:10;;;;;;;8.68;4.68;;;;;;;13.56;100.00;100993.53;5539782;32;32363;-68
2023/05/13 11:42:13;;;;;;;7.30;4.87;;;;;;;13.57;100.00;100990.72;5537731;32;33895;-68
2023/05/13 11:45:17;;;;;;;9.90;4.45;;;;;;;13.42;100.00;100990.59;5547891;32;33855;-67
2023/05/13 11:48:22;;;;;;;11.73;4.75;;;;;;;13.27;100.00;100992.31;5548043;32;34672;-67
2023/05/13 11:51:25;;;;;;;10.40;5.40;;;;;;;13.29;100.00;100992.13;5547910;32;34124;-67
2023/05/13 11:54:28;;;;;;;7.87;4.87;;;;;;;13.36;100.00;100987.81;5547956;32;33608;-67
2023/05/13 11:57:33;;;;;;;10.57;5.20;;;;;;;13.49;100.00;100993.41;5548047;32;33975;-68
2023/05/13 12:00:36;;;;;;;10.30;4.95;;;;;;;13.47;100.00;100998.91;5548171;32;33678;-68
2023/05/13 12:03:39;;;;;;;7.50;4.50;;;;;;;13.68;100.00;100994.84;5529495;32;34481;-68
2023/05/13 12:06:47;;;;;;;6.62;4.97;;;;;;;13.54;100.00;100995.56;5540862;32;33741;-67
2023/05/13 12:09:50;;;;;;;9.07;5.03;;;;;;;13.65;100.00;100996.00;5547831;32;33790;-68
2023/05/13 12:12:53;;;;;;;6.53;4.78;;;;;;;13.83;100.00;100990.47;5547162;32;33709;-67
2023/05/13 12:15:57;;;;;;;12.75;5.20;;;;;;;13.67;100.00;100995.84;5548135;32;35182;-68
2023/05/13 12:19:06;;;;;;;11.85;5.18;;;;;;;13.64;100.00;100993.53;5546882;32;34683;-70
2023/05/13 12:22:09;;;;;;;6.82;4.95;;;;;;;13.88;100.00;101001.44;5548135;32;34539;-67
2023/05/13 12:25:39;;;;;;;6.87;4.75;;;;;;;13.93;100.00;100999.91;5547855;32;34007;-69
2023/05/13 12:28:42;;;;;;;7.22;4.75;;;;;;;14.18;100.00;101003.28;5548013;32;33562;-68
2023/05/13 12:32:03;;;;;;;8.40;4.68;;;;;;;14.29;100.00;101000.19;5547301;32;33628;-67
2023/05/13 12:35:13;;;;;;;8.70;4.93;;;;;;;14.46;100.00;101000.13;5546928;32;33480;-68
2023/05/13 12:38:18;;;;;;;9.07;4.90;;;;;;;14.53;100.00;101001.88;5527731;32;32523;-69
2023/05/13 12:41:24;;;;;;;6.93;4.25;;;;;;;14.19;100.00;101004.91;5528589;32;33685;-69
2023/05/13 12:44:28;;;;;;;8.15;4.55;;;;;;;14.49;100.00;101007.75;5528711;32;35233;-68
2023/05/13 12:47:47;;;;;;;7.78;4.47;;;;;;;14.49;100.00;101003.25;5528303;32;34701;-67
2023/05/13 12:50:53;;;;;;;7.37;4.37;;;;;;;14.39;100.00;101008.00;5528119;32;34061;-69
2023/05/13 12:53:57;;;;;;;7.97;4.55;;;;;;;14.33;100.00;101006.81;5527168;32;33934;-69
2023/05/13 12:56:59;;;;;;;8.48;4.32;;;;;;;14.35;100.00;101010.16;5528081;32;33848;-67
2023/05/13 13:00:04;;;;;;;6.55;4.43;;;;;;;14.30;100.00;100999.19;5528238;32;33674;-69
2023/05/13 13:03:06;;;;;;;8.23;4.30;;;;;;;14.32;100.00;100999.03;5527688;32;33379;-67
2023/05/13 13:06:11;;;;;;;7.78;4.12;;;;;;;14.33;100.00;101003.31;5528037;32;32523;-68
2023/05/13 13:09:14;;;;;;;8.10;4.40;;;;;;;14.16;100.00;100999.09;5527029;32;33928;-68
2023/05/13 13:12:17;;;;;;;10.23;4.10;;;;;;;14.13;100.00;100997.62;5527964;32;34571;-69
2023/05/13 13:15:20;;;;;;;7.93;3.95;;;;;;;14.19;100.00;101010.25;5528817;32;33618;-70
2023/05/13 13:18:24;;;;;;;9.10;4.15;;;;;;;14.25;100.00;101003.37;5528044;32;33615;-68
2023/05/13 13:21:27;;;;;;;7.10;4.22;;;;;;;14.33;100.00;101006.81;5526986;32;34012;-69
2023/05/13 13:24:30;;;;;;;8.85;4.07;;;;;;;14.42;100.00;101001.50;5527751;32;33620;-68
2023/05/13 13:27:33;;;;;;;12.40;4.25;;;;;;;14.81;100.00;100994.16;5528689;32;32098;-67
2023/05/13 13:30:36;;;;;;;7.37;4.62;;;;;;;15.20;100.00;100986.75;5543722;32;34624;-69
2023/05/13 13:33:39;;;;;;;9.40;4.07;;;;;;;15.37;100.00;100989.25;5543825;32;34327;-68
2023/05/13 13:36:42;;;;;;;9.85;4.10;;;;;;;15.14;100.00;100986.69;5546289;32;33977;-68
2023/05/13 13:39:44;;;;;;;6.87;3.90;;;;;;;15.21;100.00;100985.75;5546795;32;34540;-68
2023/05/13 13:42:47;;;;;;;5.95;3.60;;;;;;;15.56;100.00;100994.09;5546809;32;34498;-68
2023/05/13 13:45:51;;;;;;;8.98;4.05;;;;;;;15.46;100.00;100993.50;5546826;32;33940;-68
2023/05/13 13:48:54;;;;;;;5.57;3.65;;;;;;;15.67;100.00;100992.78;5546451;32;34623;-71
2023/05/13 13:51:57;;;;;;;5.90;3.67;;;;;;;15.80;100.00;100991.12;5546408;32;34355;-70
2023/05/13 13:54:59;;;;;;;7.43;3.85;;;;;;;15.70;100.00;100995.09;5545563;32;33830;-68
2023/05/13 13:58:02;;;;;;;4.30;3.20;;;;;;;15.71;100.00;100997.59;5546500;32;33851;-69
2023/05/13 14:01:05;;;;;;;4.93;3.53;;;;;;;15.51;100.00;100988.47;5546579;32;34010;-68
2023/05/13 14:04:09;;;;;;;7.05;3.70;;;;;;;15.44;100.00;100985.66;5546466;32;35122;-69
2023/05/13 14:07:12;;;;;;;5.95;3.80;;;;;;;15.55;100.00;100977.22;5546308;32;33989;-69